createdAt,value
2023-08-12T00:02:05.450Z,84.1
2023-08-12T00:22:05.428Z,86.2
2023-08-12T00:42:05.407Z,84.7
2023-08-12T01:02:05.361Z,84.3
2023-08-12T01:22:05.321Z,84.7
2023-08-12T01:42:05.307Z,85.5
2023-08-12T02:02:05.275Z,85.1
2023-08-12T02:22:05.245Z,85.9
2023-08-12T02:42:05.212Z,85.8
2023-08-12T03:02:05.190Z,84.1
2023-08-12T03:22:05.142Z,85.1
2023-08-12T03:42:05.117Z,85.4
2023-08-12T04:02:05.094Z,85.4
2023-08-12T04:22:05.057Z,86.2
2023-08-12T04:42:05.045Z,87.7
2023-08-12T05:02:04.994Z,88.5
2023-08-12T05:22:04.988Z,89.4
2023-08-12T05:42:04.970Z,89.7
2023-08-12T06:02:04.915Z,90.4
2023-08-12T06:22:04.887Z,90.7
2023-08-12T06:42:04.991Z,90.2
2023-08-12T07:02:04.828Z,90.7
2023-08-12T07:22:04.831Z,87.9
2023-08-12T07:42:04.799Z,86.6
2023-08-12T08:02:04.743Z,84.4
2023-08-12T08:22:04.728Z,83.5
2023-08-12T08:42:04.689Z,82.2
2023-08-12T09:02:04.711Z,79.8
2023-08-12T09:22:04.606Z,81.9
2023-08-12T09:42:04.569Z,80.0
2023-08-12T10:02:04.545Z,79.0
2023-08-12T10:22:04.545Z,75.3
2023-08-12T10:42:04.515Z,74.8
2023-08-12T11:02:04.462Z,72.1
2023-08-12T11:22:04.484Z,66.9
2023-08-12T11:42:04.462Z,64.8
2023-08-12T12:02:04.408Z,63.9
2023-08-12T12:22:04.430Z,66.5
2023-08-12T12:42:04.302Z,64.6
2023-08-12T13:02:04.250Z,60.3
2023-08-12T13:22:04.233Z,65.8
2023-08-12T13:42:04.217Z,69.3
2023-08-12T14:02:04.183Z,61.4
2023-08-12T14:22:04.437Z,70.2
2023-08-12T14:42:04.131Z,70.1
2023-08-12T15:02:04.070Z,67.9
2023-08-12T15:22:04.046Z,68.9
2023-08-12T15:42:04.010Z,72.2
2023-08-12T16:02:03.986Z,69.7
2023-08-12T16:22:03.968Z,73.9
2023-08-12T16:42:03.913Z,71.5
2023-08-12T17:02:03.897Z,73.6
2023-08-12T17:22:03.854Z,73.6
2023-08-12T17:42:03.847Z,75.3
2023-08-12T18:02:03.812Z,76.8
2023-08-12T18:22:03.760Z,76.9
2023-08-12T18:42:03.720Z,76.4
2023-08-12T19:02:03.701Z,80.0
2023-08-12T19:22:03.671Z,82.0
2023-08-12T19:42:03.637Z,80.7
2023-08-12T20:02:03.663Z,80.5
2023-08-12T20:22:03.604Z,81.3
2023-08-12T20:42:03.533Z,81.7
2023-08-12T21:02:03.521Z,83.7
2023-08-12T21:22:03.525Z,82.8
2023-08-12T21:42:03.447Z,83.3
2023-08-12T22:02:03.433Z,83.3
2023-08-12T22:22:03.382Z,84.0
2023-08-12T22:42:03.383Z,84.1
2023-08-12T23:02:03.324Z,84.4
2023-08-12T23:22:03.372Z,85.6
2023-08-12T23:42:03.260Z,85.5
